Manchester, CT (06040)

3:28 AM EDT on September 03, 2014 (GMT -0400)
GraVan Garden | Change Station
CLOSE
Current Station
Personal Weather Station
Location: Manchester, CT
Elevation: 292 ft
Nearby Weather Stations

Elev 292 ft 41.78 °N, 72.51 °W | Updated 12 minutes ago

Mostly Cloudy
Mostly Cloudy
73.9 °F
Feels Like 75 °F
N
10.3
Wind Variable Wind from NNW

Today
High -- | Low -- °F
--% Chance of Precip.
Yesterday
High -- | Low -- °F
Precip. -- in
6:17 AM 7:20 PM
First Quarter, 59% visible
Pressure 29.80 in
Visibility 10.0 miles
Clouds Mostly Cloudy 5000 ft
Heat Index 75 °F
Dew Point 66 °F
Humidity 77%
Rainfall 0.00 in
Snow Depth Not available.
UV 0 out of 12
Pollen 7.30 out of 12
Ozone Good
PM2.5 Moderate
Flu Activity Not available.
METAR KHFD 030653Z AUTO 30011G19KT 10SM BKN050 24/17 A2979 RMK AO2 SLP089 T02440172

More Conditions Fewer Conditions

Pressure 29.80 in
Visibility 10.0 miles
Clouds Mostly Cloudy 5000 ft
Heat Index 75 °F
Dew Point 66 °F
Humidity 77%
Rainfall 0.00 in
Snow Depth Not available.
UV 0 out of 12
Pollen 7.30 out of 12
Ozone Good
PM2.5 Moderate
Flu Activity Not available.
METAR KHFD 030653Z AUTO 30011G19KT 10SM BKN050 24/17 A2979 RMK AO2 SLP089 T02440172

More Conditions Fewer Conditions

10-Day Weather Forecast

Almanac

Astronomy

Sep. 03, 2014 Rise Set
Actual Time 6:17 AM EDT 7:20 PM EDT
Civil Twilight 5:49 AM EDT 7:48 PM EDT
Nautical Twilight 5:15 AM EDT 8:22 PM EDT
Astronomical Twilight 4:39 AM EDT 8:57 PM EDT
Moon 3:02 PM EDT 12:06 AM EDT
Length of Visible Light 13h 59m
Length of Day
13h 02m
Tomorrow will be 2m 43s shorter.
First Quarter, 59% of the Moon is Illuminated
Today
First Quarter
Sep 8
Full
Sep 15
Last Quarter
Sep 24
New
Oct 1
First Quarter

Today's Extremes

State Highs State Lows

Community

WunderPhotos

Upload Photos

1,749,891 photos uploaded!

Nearby

Air Quality

  Air Quality AQ Index Pollutant
Yesterday Moderate
OZONE
Yesterday Moderate
PM2.5
Current Moderate
PM2.5
Current Good
OZONE
Wednesday Good
PM2.5
Wednesday Good
OZONE

Snow Depth

Station Depth Elevation
No new snow has been reported.

Earthquake Activity

City Distance Mag. Time & Date
No recent earthquake activity has been reported nearby.
Minimum magnitude displayed is 2.5.

Coastal Water Temperatures

Place Temperature
New London, CT 73.0 °F
Newport, RI 71.1 °F
Quonset Point, RI 73.9 °F
Conimicut Light, RI 75.0 °F
Providence, RI 73.9 °F

Nearby Weather Stations